sensor_id;sensor_type;location;lat;lon;timestamp;pressure;altitude;pressure_sealevel;temperature;humidity
42587;BME280;28216;53.362;-6.288;2023-08-06T00:02:17;101671.91;;;12.61;100.00
42587;BME280;28216;53.362;-6.288;2023-08-06T00:04:43;101659.19;;;12.56;100.00
42587;BME280;28216;53.362;-6.288;2023-08-06T00:07:08;101661.66;;;12.58;100.00
42587;BME280;28216;53.362;-6.288;2023-08-06T00:09:34;101667.59;;;12.60;100.00
42587;BME280;28216;53.362;-6.288;2023-08-06T00:11:59;101658.38;;;12.56;100.00
42587;BME280;28216;53.362;-6.288;2023-08-06T00:14:25;101670.00;;;12.53;100.00
42587;BME280;28216;53.362;-6.288;2023-08-06T00:16:50;101666.72;;;12.51;100.00
42587;BME280;28216;53.362;-6.288;2023-08-06T00:19:16;101671.59;;;12.46;100.00
42587;BME280;28216;53.362;-6.288;2023-08-06T00:21:41;101673.38;;;12.46;100.00
42587;BME280;28216;53.362;-6.288;2023-08-06T00:24:07;101663.84;;;12.45;100.00
42587;BME280;28216;53.362;-6.288;2023-08-06T00:26:32;101671.50;;;12.38;100.00
42587;BME280;28216;53.362;-6.288;2023-08-06T00:28:57;101663.47;;;12.39;100.00
42587;BME280;28216;53.362;-6.288;2023-08-06T00:31:23;101660.00;;;12.39;100.00
42587;BME280;28216;53.362;-6.288;2023-08-06T00:33:48;101667.06;;;12.38;100.00
42587;BME280;28216;53.362;-6.288;2023-08-06T00:36:14;101676.22;;;12.34;100.00
42587;BME280;28216;53.362;-6.288;2023-08-06T00:38:39;101679.47;;;12.28;100.00
42587;BME280;28216;53.362;-6.288;2023-08-06T00:41:05;101682.38;;;12.25;100.00
42587;BME280;28216;53.362;-6.288;2023-08-06T00:43:30;101681.41;;;12.26;100.00
42587;BME280;28216;53.362;-6.288;2023-08-06T00:45:56;101683.34;;;12.24;100.00
42587;BME280;28216;53.362;-6.288;2023-08-06T00:48:21;101690.41;;;12.24;100.00
42587;BME280;28216;53.362;-6.288;2023-08-06T00:50:47;101681.69;;;12.23;100.00
42587;BME280;28216;53.362;-6.288;2023-08-06T00:53:13;101683.66;;;12.21;100.00
42587;BME280;28216;53.362;-6.288;2023-08-06T00:55:39;101681.84;;;12.22;100.00
42587;BME280;28216;53.362;-6.288;2023-08-06T00:58:05;101685.31;;;12.22;100.00
42587;BME280;28216;53.362;-6.288;2023-08-06T01:00:31;101683.66;;;12.21;100.00
42587;BME280;28216;53.362;-6.288;2023-08-06T01:02:56;101678.00;;;12.16;100.00
42587;BME280;28216;53.362;-6.288;2023-08-06T01:05:22;101677.03;;;12.17;100.00
42587;BME280;28216;53.362;-6.288;2023-08-06T01:08:23;101680.09;;;12.13;100.00
42587;BME280;28216;53.362;-6.288;2023-08-06T01:11:04;101679.13;;;12.14;100.00
42587;BME280;28216;53.362;-6.288;2023-08-06T01:13:38;101687.31;;;12.11;100.00
42587;BME280;28216;53.362;-6.288;2023-08-06T01:16:07;101682.06;;;12.11;100.00
42587;BME280;28216;53.362;-6.288;2023-08-06T01:18:34;101676.41;;;12.05;100.00
42587;BME280;28216;53.362;-6.288;2023-08-06T01:21:00;101685.25;;;12.04;100.00
42587;BME280;28216;53.362;-6.288;2023-08-06T01:23:26;101683.22;;;11.98;100.00
42587;BME280;28216;53.362;-6.288;2023-08-06T01:26:15;101683.06;;;12.00;100.00
42587;BME280;28216;53.362;-6.288;2023-08-06T01:31:48;101683.66;;;11.94;100.00
42587;BME280;28216;53.362;-6.288;2023-08-06T01:34:17;101686.28;;;11.94;100.00
42587;BME280;28216;53.362;-6.288;2023-08-06T01:36:46;101689.75;;;11.94;100.00
42587;BME280;28216;53.362;-6.288;2023-08-06T01:39:11;101683.66;;;11.94;100.00
42587;BME280;28216;53.362;-6.288;2023-08-06T01:41:37;101689.75;;;11.94;100.00
42587;BME280;28216;53.362;-6.288;2023-08-06T01:44:02;101692.91;;;11.88;100.00
42587;BME280;28216;53.362;-6.288;2023-08-06T01:46:28;101696.38;;;11.89;100.00
42587;BME280;28216;53.362;-6.288;2023-08-06T01:48:53;101705.13;;;11.89;100.00
42587;BME280;28216;53.362;-6.288;2023-08-06T01:51:19;101700.69;;;11.90;100.00
42587;BME280;28216;53.362;-6.288;2023-08-06T01:53:44;101708.44;;;11.91;100.00
42587;BME280;28216;53.362;-6.288;2023-08-06T01:56:10;101706.78;;;11.90;100.00
42587;BME280;28216;53.362;-6.288;2023-08-06T01:58:35;101707.59;;;11.91;100.00
42587;BME280;28216;53.362;-6.288;2023-08-06T02:01:01;101705.81;;;11.91;100.00
42587;BME280;28216;53.362;-6.288;2023-08-06T02:03:27;101710.22;;;11.91;100.00
42587;BME280;28216;53.362;-6.288;2023-08-06T02:05:52;101713.94;;;11.88;100.00
42587;BME280;28216;53.362;-6.288;2023-08-06T02:08:18;101708.84;;;11.87;100.00
42587;BME280;28216;53.362;-6.288;2023-08-06T02:10:44;101716.03;;;11.85;100.00
42587;BME280;28216;53.362;-6.288;2023-08-06T02:13:10;101714.38;;;11.84;100.00
42587;BME280;28216;53.362;-6.288;2023-08-06T02:15:35;101710.09;;;11.83;100.00
42587;BME280;28216;53.362;-6.288;2023-08-06T02:18:01;101717.97;;;11.83;100.00
42587;BME280;28216;53.362;-6.288;2023-08-06T02:20:26;101716.47;;;11.80;100.00
42587;BME280;28216;53.362;-6.288;2023-08-06T02:22:52;101711.91;;;11.82;100.00
42587;BME280;28216;53.362;-6.288;2023-08-06T02:25:17;101715.47;;;11.91;100.00
42587;BME280;28216;53.362;-6.288;2023-08-06T02:27:43;101712.13;;;11.98;100.00
42587;BME280;28216;53.362;-6.288;2023-08-06T02:30:08;101712.38;;;12.05;100.00
42587;BME280;28216;53.362;-6.288;2023-08-06T02:32:34;101717.06;;;12.11;100.00
42587;BME280;28216;53.362;-6.288;2023-08-06T02:35:01;101713.16;;;12.15;100.00
42587;BME280;28216;53.362;-6.288;2023-08-06T02:37:27;101707.47;;;12.20;100.00
42587;BME280;28216;53.362;-6.288;2023-08-06T02:39:52;101712.56;;;12.21;100.00
42587;BME280;28216;53.362;-6.288;2023-08-06T02:42:18;101707.16;;;12.23;100.00
42587;BME280;28216;53.362;-6.288;2023-08-06T02:44:43;101711.59;;;12.22;100.00
42587;BME280;28216;53.362;-6.288;2023-08-06T02:47:09;101711.31;;;12.25;100.00
42587;BME280;28216;53.362;-6.288;2023-08-06T02:49:34;101711.59;;;12.22;100.00
42587;BME280;28216;53.362;-6.288;2023-08-06T02:52:00;101708.97;;;12.22;100.00
42587;BME280;28216;53.362;-6.288;2023-08-06T02:54:25;101704.00;;;12.19;100.00
42587;BME280;28216;53.362;-6.288;2023-08-06T02:56:51;101705.22;;;12.25;100.00
42587;BME280;28216;53.362;-6.288;2023-08-06T02:59:17;101700.63;;;12.27;100.00
42587;BME280;28216;53.362;-6.288;2023-08-06T03:01:43;101702.06;;;12.21;100.00
42587;BME280;28216;53.362;-6.288;2023-08-06T03:04:08;101703.03;;;12.20;100.00
42587;BME280;28216;53.362;-6.288;2023-08-06T03:06:34;101698.66;;;12.11;100.00
42587;BME280;28216;53.362;-6.288;2023-08-06T03:08:59;101705.56;;;12.12;100.00
42587;BME280;28216;53.362;-6.288;2023-08-06T03:11:24;101695.78;;;12.04;100.00
42587;BME280;28216;53.362;-6.288;2023-08-06T03:13:50;101699.25;;;12.05;100.00
42587;BME280;28216;53.362;-6.288;2023-08-06T03:16:15;101701.03;;;12.04;100.00
42587;BME280;28216;53.362;-6.288;2023-08-06T03:18:41;101692.31;;;12.04;100.00
42587;BME280;28216;53.362;-6.288;2023-08-06T03:21:06;101686.38;;;12.02;100.00
42587;BME280;28216;53.362;-6.288;2023-08-06T03:23:32;101678.78;;;11.99;100.00
42587;BME280;28216;53.362;-6.288;2023-08-06T03:26:03;101692.06;;;11.97;100.00
42587;BME280;28216;53.362;-6.288;2023-08-06T03:28:29;101691.69;;;11.92;100.00
42587;BME280;28216;53.362;-6.288;2023-08-06T03:31:02;101704.16;;;11.90;100.00
42587;BME280;28216;53.362;-6.288;2023-08-06T03:33:27;101708.84;;;11.87;100.00
42587;BME280;28216;53.362;-6.288;2023-08-06T03:35:53;101704.16;;;11.81;100.00
42587;BME280;28216;53.362;-6.288;2023-08-06T03:38:19;101703.88;;;11.84;100.00
42587;BME280;28216;53.362;-6.288;2023-08-06T03:40:45;101716.72;;;11.87;100.00
42587;BME280;28216;53.362;-6.288;2023-08-06T03:43:11;101715.47;;;11.91;100.00
42587;BME280;28216;53.362;-6.288;2023-08-06T03:45:36;101707.47;;;11.92;100.00
42587;BME280;28216;53.362;-6.288;2023-08-06T03:48:02;101701.91;;;11.95;100.00
42587;BME280;28216;53.362;-6.288;2023-08-06T03:50:27;101704.69;;;11.94;100.00
42587;BME280;28216;53.362;-6.288;2023-08-06T03:52:53;101699.28;;;11.95;100.00
42587;BME280;28216;53.362;-6.288;2023-08-06T03:55:18;101700.78;;;11.98;100.00
42587;BME280;28216;53.362;-6.288;2023-08-06T03:57:43;101704.09;;;12.00;100.00
42587;BME280;28216;53.362;-6.288;2023-08-06T04:00:09;101700.50;;;12.01;100.00
42587;BME280;28216;53.362;-6.288;2023-08-06T04:02:35;101701.31;;;12.01;100.00
42587;BME280;28216;53.362;-6.288;2023-08-06T04:05:01;101699.44;;;11.94;100.00
42587;BME280;28216;53.362;-6.288;2023-08-06T04:07:26;101705.06;;;11.99;100.00
42587;BME280;28216;53.362;-6.288;2023-08-06T04:10:00;101698.31;;;11.96;100.00
42587;BME280;28216;53.362;-6.288;2023-08-06T04:12:26;101707.16;;;11.95;100.00
42587;BME280;28216;53.362;-6.288;2023-08-06T04:14:52;101700.94;;;11.87;100.00
42587;BME280;28216;53.362;-6.288;2023-08-06T04:17:18;101700.84;;;11.78;100.00
42587;BME280;28216;53.362;-6.288;2023-08-06T04:19:54;101702.22;;;11.83;100.00
42587;BME280;28216;53.362;-6.288;2023-08-06T04:22:23;101700.69;;;11.80;100.00
42587;BME280;28216;53.362;-6.288;2023-08-06T04:24:49;101704.28;;;11.79;100.00
42587;BME280;28216;53.362;-6.288;2023-08-06T04:27:15;101704.56;;;11.76;100.00
42587;BME280;28216;53.362;-6.288;2023-08-06T04:29:41;101719.09;;;11.70;100.00
42587;BME280;28216;53.362;-6.288;2023-08-06T04:32:08;101710.53;;;11.68;100.00
42587;BME280;28216;53.362;-6.288;2023-08-06T04:34:34;101713.97;;;11.69;100.00
42587;BME280;28216;53.362;-6.288;2023-08-06T04:37:01;101721.47;;;11.64;100.00
42587;BME280;28216;53.362;-6.288;2023-08-06T04:39:27;101719.84;;;11.53;100.00
42587;BME280;28216;53.362;-6.288;2023-08-06T04:41:52;101714.59;;;11.53;100.00
42587;BME280;28216;53.362;-6.288;2023-08-06T04:44:18;101712.63;;;11.55;100.00
42587;BME280;28216;53.362;-6.288;2023-08-06T04:46:43;101723.16;;;11.55;100.00
42587;BME280;28216;53.362;-6.288;2023-08-06T04:49:09;101716.91;;;11.56;100.00
42587;BME280;28216;53.362;-6.288;2023-08-06T04:51:35;101725.63;;;11.57;100.00
42587;BME280;28216;53.362;-6.288;2023-08-06T04:54:00;101719.97;;;11.52;100.00
42587;BME280;28216;53.362;-6.288;2023-08-06T04:56:26;101724.41;;;11.51;100.00
42587;BME280;28216;53.362;-6.288;2023-08-06T04:58:52;101722.06;;;11.48;100.00
42587;BME280;28216;53.362;-6.288;2023-08-06T05:01:17;101729.66;;;11.51;100.00
42587;BME280;28216;53.362;-6.288;2023-08-06T05:03:43;101724.13;;;11.54;100.00
42587;BME280;28216;53.362;-6.288;2023-08-06T05:06:08;101730.75;;;11.58;100.00
42587;BME280;28216;53.362;-6.288;2023-08-06T05:08:34;101725.50;;;11.58;100.00
42587;BME280;28216;53.362;-6.288;2023-08-06T05:10:59;101735.44;;;11.55;100.00
42587;BME280;28216;53.362;-6.288;2023-08-06T05:13:25;101736.81;;;11.59;100.00
42587;BME280;28216;53.362;-6.288;2023-08-06T05:15:52;101736.00;;;11.58;100.00
42587;BME280;28216;53.362;-6.288;2023-08-06T05:18:18;101737.66;;;11.59;100.00
42587;BME280;28216;53.362;-6.288;2023-08-06T05:20:44;101746.34;;;11.60;100.00
42587;BME280;28216;53.362;-6.288;2023-08-06T05:23:10;101744.97;;;11.65;100.00
42587;BME280;28216;53.362;-6.288;2023-08-06T05:25:35;101742.88;;;11.69;100.00
42587;BME280;28216;53.362;-6.288;2023-08-06T05:28:01;101756.41;;;11.74;100.00
42587;BME280;28216;53.362;-6.288;2023-08-06T05:30:27;101751.75;;;11.77;100.00
42587;BME280;28216;53.362;-6.288;2023-08-06T05:32:53;101747.03;;;11.81;100.00
42587;BME280;28216;53.362;-6.288;2023-08-06T05:35:19;101752.81;;;11.85;100.00
42587;BME280;28216;53.362;-6.288;2023-08-06T05:37:45;101752.41;;;11.89;100.00
42587;BME280;28216;53.362;-6.288;2023-08-06T05:40:11;101760.41;;;11.88;100.00
42587;BME280;28216;53.362;-6.288;2023-08-06T05:42:36;101757.25;;;11.94;100.00
42587;BME280;28216;53.362;-6.288;2023-08-06T05:45:01;101757.66;;;11.99;100.00
42587;BME280;28216;53.362;-6.288;2023-08-06T05:47:27;101764.13;;;12.04;100.00
42587;BME280;28216;53.362;-6.288;2023-08-06T05:49:52;101767.97;;;12.10;100.00
42587;BME280;28216;53.362;-6.288;2023-08-06T05:52:18;101766.84;;;12.13;100.00
42587;BME280;28216;53.362;-6.288;2023-08-06T05:54:43;101766.97;;;12.21;100.00
42587;BME280;28216;53.362;-6.288;2023-08-06T05:57:09;101766.22;;;12.28;100.00
42587;BME280;28216;53.362;-6.288;2023-08-06T05:59:34;101768.72;;;12.30;100.00
42587;BME280;28216;53.362;-6.288;2023-08-06T06:02:00;101770.03;;;12.44;100.00
42587;BME280;28216;53.362;-6.288;2023-08-06T06:04:25;101773.13;;;12.66;100.00
42587;BME280;28216;53.362;-6.288;2023-08-06T06:06:50;101769.44;;;13.13;100.00
42587;BME280;28216;53.362;-6.288;2023-08-06T06:09:16;101767.34;;;13.52;100.00
42587;BME280;28216;53.362;-6.288;2023-08-06T06:11:41;101756.31;;;14.08;100.00
42587;BME280;28216;53.362;-6.288;2023-08-06T06:14:07;101760.75;;;14.42;100.00
42587;BME280;28216;53.362;-6.288;2023-08-06T06:16:33;101755.81;;;14.89;100.00
42587;BME280;28216;53.362;-6.288;2023-08-06T06:18:59;101757.47;;;15.39;100.00
42587;BME280;28216;53.362;-6.288;2023-08-06T06:21:25;101750.78;;;16.00;100.00
42587;BME280;28216;53.362;-6.288;2023-08-06T06:23:50;101754.88;;;16.58;100.00
42587;BME280;28216;53.362;-6.288;2023-08-06T06:26:18;101750.72;;;17.09;100.00
42587;BME280;28216;53.362;-6.288;2023-08-06T06:28:43;101750.69;;;17.55;100.00
42587;BME280;28216;53.362;-6.288;2023-08-06T06:31:08;101741.16;;;17.98;100.00
42587;BME280;28216;53.362;-6.288;2023-08-06T06:33:34;101738.56;;;18.55;100.00
42587;BME280;28216;53.362;-6.288;2023-08-06T06:36:03;101737.00;;;18.97;100.00
42587;BME280;28216;53.362;-6.288;2023-08-06T06:38:29;101741.97;;;19.28;100.00
42587;BME280;28216;53.362;-6.288;2023-08-06T06:40:57;101739.44;;;19.41;100.00
42587;BME280;28216;53.362;-6.288;2023-08-06T06:43:23;101737.25;;;19.02;100.00
42587;BME280;28216;53.362;-6.288;2023-08-06T06:45:56;101743.66;;;18.65;100.00
42587;BME280;28216;53.362;-6.288;2023-08-06T06:48:22;101732.81;;;18.01;100.00
42587;BME280;28216;53.362;-6.288;2023-08-06T06:50:48;101737.28;;;17.71;100.00
42587;BME280;28216;53.362;-6.288;2023-08-06T06:53:14;101744.53;;;17.39;100.00
42587;BME280;28216;53.362;-6.288;2023-08-06T06:55:39;101737.22;;;17.41;100.00
42587;BME280;28216;53.362;-6.288;2023-08-06T06:58:05;101741.53;;;17.42;100.00
42587;BME280;28216;53.362;-6.288;2023-08-06T07:00:31;101739.34;;;17.61;100.00
42587;BME280;28216;53.362;-6.288;2023-08-06T07:02:56;101740.47;;;17.66;100.00
42587;BME280;28216;53.362;-6.288;2023-08-06T07:05:21;101742.66;;;17.63;100.00
42587;BME280;28216;53.362;-6.288;2023-08-06T07:07:47;101741.06;;;17.39;100.00
42587;BME280;28216;53.362;-6.288;2023-08-06T07:10:13;101741.63;;;17.49;100.00
42587;BME280;28216;53.362;-6.288;2023-08-06T07:12:38;101746.75;;;17.51;100.00
42587;BME280;28216;53.362;-6.288;2023-08-06T07:15:06;101743.28;;;17.50;100.00
42587;BME280;28216;53.362;-6.288;2023-08-06T07:17:32;101740.50;;;18.10;100.00
42587;BME280;28216;53.362;-6.288;2023-08-06T07:19:57;101738.66;;;18.77;100.00
42587;BME280;28216;53.362;-6.288;2023-08-06T07:22:23;101729.63;;;19.42;100.00
42587;BME280;28216;53.362;-6.288;2023-08-06T07:24:48;101727.09;;;19.89;100.00
42587;BME280;28216;53.362;-6.288;2023-08-06T07:27:14;101716.84;;;20.34;100.00
42587;BME280;28216;53.362;-6.288;2023-08-06T07:29:40;101725.16;;;20.66;100.00
42587;BME280;28216;53.362;-6.288;2023-08-06T07:32:06;101726.81;;;20.80;100.00
42587;BME280;28216;53.362;-6.288;2023-08-06T07:34:32;101722.16;;;21.21;100.00
42587;BME280;28216;53.362;-6.288;2023-08-06T07:36:58;101720.72;;;21.45;100.00
42587;BME280;28216;53.362;-6.288;2023-08-06T07:39:23;101724.81;;;21.61;100.00
42587;BME280;28216;53.362;-6.288;2023-08-06T07:41:49;101722.75;;;21.63;100.00
42587;BME280;28216;53.362;-6.288;2023-08-06T07:44:15;101721.13;;;21.55;100.00
42587;BME280;28216;53.362;-6.288;2023-08-06T07:46:41;101721.41;;;21.99;100.00
42587;BME280;28216;53.362;-6.288;2023-08-06T07:49:08;101723.72;;;21.88;100.00
42587;BME280;28216;53.362;-6.288;2023-08-06T07:51:33;101711.09;;;22.15;100.00
42587;BME280;28216;53.362;-6.288;2023-08-06T07:54:07;101715.94;;;22.38;100.00
42587;BME280;28216;53.362;-6.288;2023-08-06T07:56:32;101712.84;;;22.41;100.00
42587;BME280;28216;53.362;-6.288;2023-08-06T07:59:07;101714.47;;;22.80;100.00
42587;BME280;28216;53.362;-6.288;2023-08-06T08:04:21;101714.16;;;22.64;100.00
42587;BME280;28216;53.362;-6.288;2023-08-06T08:06:48;101716.16;;;22.37;100.00
42587;BME280;28216;53.362;-6.288;2023-08-06T08:09:14;101724.00;;;22.25;100.00
42587;BME280;28216;53.362;-6.288;2023-08-06T08:11:43;101724.13;;;21.92;100.00
42587;BME280;28216;53.362;-6.288;2023-08-06T08:14:09;101718.34;;;22.08;100.00
42587;BME280;28216;53.362;-6.288;2023-08-06T08:16:34;101709.81;;;22.25;100.00
42587;BME280;28216;53.362;-6.288;2023-08-06T08:19:00;101722.13;;;21.74;100.00
42587;BME280;28216;53.362;-6.288;2023-08-06T08:21:29;101720.00;;;21.89;100.00
42587;BME280;28216;53.362;-6.288;2023-08-06T08:24:15;101719.69;;;21.46;100.00
42587;BME280;28216;53.362;-6.288;2023-08-06T08:26:45;101718.41;;;20.70;100.00
42587;BME280;28216;53.362;-6.288;2023-08-06T08:29:10;101709.94;;;20.40;100.00
42587;BME280;28216;53.362;-6.288;2023-08-06T08:31:39;101718.13;;;19.97;100.00
42587;BME280;28216;53.362;-6.288;2023-08-06T08:34:05;101720.00;;;19.68;100.00
42587;BME280;28216;53.362;-6.288;2023-08-06T08:36:31;101722.78;;;19.88;100.00
42587;BME280;28216;53.362;-6.288;2023-08-06T08:38:57;101715.06;;;20.48;100.00
42587;BME280;28216;53.362;-6.288;2023-08-06T08:41:22;101715.78;;;20.96;100.00
42587;BME280;28216;53.362;-6.288;2023-08-06T08:43:50;101718.88;;;21.26;100.00
42587;BME280;28216;53.362;-6.288;2023-08-06T08:46:18;101716.78;;;21.54;100.00
42587;BME280;28216;53.362;-6.288;2023-08-06T08:48:44;101714.75;;;21.43;100.00
42587;BME280;28216;53.362;-6.288;2023-08-06T08:51:13;101712.03;;;21.83;100.00
42587;BME280;28216;53.362;-6.288;2023-08-06T08:53:44;101706.34;;;22.24;100.00
42587;BME280;28216;53.362;-6.288;2023-08-06T08:56:12;101699.63;;;22.02;100.00
42587;BME280;28216;53.362;-6.288;2023-08-06T08:58:38;101705.69;;;22.29;100.00
42587;BME280;28216;53.362;-6.288;2023-08-06T09:01:04;101700.47;;;22.47;100.00
42587;BME280;28216;53.362;-6.288;2023-08-06T09:03:31;101704.44;;;22.38;100.00
42587;BME280;28216;53.362;-6.288;2023-08-06T09:05:58;101701.44;;;22.59;100.00
42587;BME280;28216;53.362;-6.288;2023-08-06T09:08:27;101704.22;;;23.02;100.00
42587;BME280;28216;53.362;-6.288;2023-08-06T09:10:55;101711.56;;;23.13;100.00
42587;BME280;28216;53.362;-6.288;2023-08-06T09:13:22;101706.63;;;22.86;100.00
42587;BME280;28216;53.362;-6.288;2023-08-06T09:15:48;101708.88;;;22.89;100.00
42587;BME280;28216;53.362;-6.288;2023-08-06T09:18:25;101706.94;;;22.64;100.00
42587;BME280;28216;53.362;-6.288;2023-08-06T09:20:52;101703.72;;;22.87;100.00
42587;BME280;28216;53.362;-6.288;2023-08-06T09:23:17;101701.88;;;22.88;100.00
42587;BME280;28216;53.362;-6.288;2023-08-06T09:25:47;101705.19;;;22.51;100.00
42587;BME280;28216;53.362;-6.288;2023-08-06T09:28:15;101707.94;;;22.38;100.00
42587;BME280;28216;53.362;-6.288;2023-08-06T09:30:41;101708.50;;;21.96;100.00
42587;BME280;28216;53.362;-6.288;2023-08-06T09:33:09;101722.56;;;21.65;100.00
42587;BME280;28216;53.362;-6.288;2023-08-06T09:35:45;101721.34;;;21.61;100.00
42587;BME280;28216;53.362;-6.288;2023-08-06T09:38:10;101715.34;;;21.72;100.00
42587;BME280;28216;53.362;-6.288;2023-08-06T09:40:44;101722.16;;;21.61;100.00
42587;BME280;28216;53.362;-6.288;2023-08-06T09:43:12;101720.66;;;21.85;100.00
42587;BME280;28216;53.362;-6.288;2023-08-06T09:45:58;101722.91;;;21.88;100.00
42587;BME280;28216;53.362;-6.288;2023-08-06T09:48:29;101714.22;;;22.06;100.00
42587;BME280;28216;53.362;-6.288;2023-08-06T09:50:55;101715.47;;;22.03;100.00
42587;BME280;28216;53.362;-6.288;2023-08-06T09:54:04;101716.41;;;21.51;100.00
42587;BME280;28216;53.362;-6.288;2023-08-06T09:56:40;101719.28;;;21.63;100.00
42587;BME280;28216;53.362;-6.288;2023-08-06T09:59:08;101706.91;;;21.75;100.00
42587;BME280;28216;53.362;-6.288;2023-08-06T10:01:35;101722.56;;;21.65;100.00
42587;BME280;28216;53.362;-6.288;2023-08-06T10:04:05;101714.94;;;21.55;100.00
42587;BME280;28216;53.362;-6.288;2023-08-06T10:06:34;101720.72;;;21.59;100.00
42587;BME280;28216;53.362;-6.288;2023-08-06T10:09:01;101720.31;;;21.62;100.00
42587;BME280;28216;53.362;-6.288;2023-08-06T10:11:35;101723.38;;;21.59;100.00
42587;BME280;28216;53.362;-6.288;2023-08-06T10:14:28;101712.06;;;21.70;100.00
42587;BME280;28216;53.362;-6.288;2023-08-06T10:17:20;101719.63;;;21.79;100.00
42587;BME280;28216;53.362;-6.288;2023-08-06T10:19:53;101729.84;;;21.96;100.00
42587;BME280;28216;53.362;-6.288;2023-08-06T10:22:21;101725.63;;;21.48;100.00
42587;BME280;28216;53.362;-6.288;2023-08-06T10:24:56;101724.84;;;21.28;100.00
42587;BME280;28216;53.362;-6.288;2023-08-06T10:27:34;101731.38;;;20.86;100.00
42587;BME280;28216;53.362;-6.288;2023-08-06T10:32:52;101717.22;;;21.18;100.00
42587;BME280;28216;53.362;-6.288;2023-08-06T10:35:37;101726.47;;;21.09;100.00
42587;BME280;28216;53.362;-6.288;2023-08-06T10:38:11;101723.38;;;20.99;100.00
42587;BME280;28216;53.362;-6.288;2023-08-06T10:43:27;101713.44;;;20.47;100.00
42587;BME280;28216;53.362;-6.288;2023-08-06T10:45:53;101715.47;;;20.45;100.00
42587;BME280;28216;53.362;-6.288;2023-08-06T10:51:09;101726.44;;;20.89;100.00
42587;BME280;28216;53.362;-6.288;2023-08-06T10:53:38;101719.28;;;21.30;100.00
42587;BME280;28216;53.362;-6.288;2023-08-06T10:56:26;101721.75;;;21.58;100.00
42587;BME280;28216;53.362;-6.288;2023-08-06T10:59:01;101722.16;;;21.48;100.00
42587;BME280;28216;53.362;-6.288;2023-08-06T11:01:34;101721.13;;;21.49;100.00
42587;BME280;28216;53.362;-6.288;2023-08-06T11:04:02;101713.97;;;21.30;100.00
42587;BME280;28216;53.362;-6.288;2023-08-06T11:06:43;101723.19;;;21.34;100.00
42587;BME280;28216;53.362;-6.288;2023-08-06T11:09:18;101716.81;;;21.61;100.00
42587;BME280;28216;53.362;-6.288;2023-08-06T11:12:19;101730.78;;;21.56;100.00
42587;BME280;28216;53.362;-6.288;2023-08-06T11:14:55;101740.00;;;21.14;100.00
42587;BME280;28216;53.362;-6.288;2023-08-06T11:17:24;101759.44;;;20.82;100.00
42587;BME280;28216;53.362;-6.288;2023-08-06T11:19:59;101754.13;;;20.27;100.00
42587;BME280;28216;53.362;-6.288;2023-08-06T11:22:53;101754.91;;;19.52;100.00
42587;BME280;28216;53.362;-6.288;2023-08-06T11:25:45;101749.56;;;19.31;100.00
42587;BME280;28216;53.362;-6.288;2023-08-06T11:28:33;101751.00;;;19.05;100.00
42587;BME280;28216;53.362;-6.288;2023-08-06T11:31:01;101744.47;;;18.87;100.00
42587;BME280;28216;53.362;-6.288;2023-08-06T11:33:32;101750.03;;;18.92;100.00
42587;BME280;28216;53.362;-6.288;2023-08-06T11:36:10;101752.31;;;18.73;100.00
42587;BME280;28216;53.362;-6.288;2023-08-06T11:38:51;101743.41;;;18.81;100.00
42587;BME280;28216;53.362;-6.288;2023-08-06T11:41:24;101739.41;;;19.13;100.00
42587;BME280;28216;53.362;-6.288;2023-08-06T11:43:56;101739.75;;;19.53;100.00
42587;BME280;28216;53.362;-6.288;2023-08-06T11:47:11;101739.84;;;20.00;100.00
42587;BME280;28216;53.362;-6.288;2023-08-06T11:49:52;101734.34;;;20.50;100.00
42587;BME280;28216;53.362;-6.288;2023-08-06T11:52:25;101730.28;;;20.67;100.00
42587;BME280;28216;53.362;-6.288;2023-08-06T11:55:23;101727.81;;;20.66;100.00
42587;BME280;28216;53.362;-6.288;2023-08-06T11:58:07;101732.34;;;20.78;100.00
42587;BME280;28216;53.362;-6.288;2023-08-06T12:00:53;101727.47;;;20.88;100.00
42587;BME280;28216;53.362;-6.288;2023-08-06T12:20:31;101714.78;;;21.37;100.00
42587;BME280;28216;53.362;-6.288;2023-08-06T12:25:42;101725.25;;;21.25;100.00
42587;BME280;28216;53.362;-6.288;2023-08-06T12:28:12;101729.31;;;20.81;100.00
42587;BME280;28216;53.362;-6.288;2023-08-06T12:30:40;101722.25;;;20.47;100.00
42587;BME280;28216;53.362;-6.288;2023-08-06T12:33:17;101735.34;;;20.01;100.00
42587;BME280;28216;53.362;-6.288;2023-08-06T12:35:52;101743.81;;;19.77;100.00
42587;BME280;28216;53.362;-6.288;2023-08-06T12:38:28;101745.53;;;19.35;100.00
42587;BME280;28216;53.362;-6.288;2023-08-06T12:41:23;101744.03;;;19.04;100.00
42587;BME280;28216;53.362;-6.288;2023-08-06T12:44:29;101742.31;;;18.97;100.00
42587;BME280;28216;53.362;-6.288;2023-08-06T12:47:08;101744.72;;;18.92;100.00
42587;BME280;28216;53.362;-6.288;2023-08-06T12:49:41;101740.19;;;18.86;100.00
42587;BME280;28216;53.362;-6.288;2023-08-06T12:52:07;101738.66;;;18.98;100.00
42587;BME280;28216;53.362;-6.288;2023-08-06T12:54:34;101747.56;;;19.12;100.00
42587;BME280;28216;53.362;-6.288;2023-08-06T13:03:28;101732.59;;;19.53;100.00
42587;BME280;28216;53.362;-6.288;2023-08-06T13:09:39;101736.94;;;19.95;100.00
42587;BME280;28216;53.362;-6.288;2023-08-06T13:12:14;101730.69;;;20.10;100.00
42587;BME280;28216;53.362;-6.288;2023-08-06T13:14:50;101732.75;;;20.14;100.00
42587;BME280;28216;53.362;-6.288;2023-08-06T13:37:22;101729.72;;;20.85;100.00
42587;BME280;28216;53.362;-6.288;2023-08-06T13:40:07;101771.00;;;19.72;100.00
42587;BME280;28216;53.362;-6.288;2023-08-06T13:49:23;101778.84;;;18.23;100.00
42587;BME280;28216;53.362;-6.288;2023-08-06T13:51:48;101770.97;;;18.15;100.00